Time;durP1;ratioP1;P1;durP2;ratioP2;P2;SDS_P1;SDS_P2;PMS_P1;PMS_P2;Temp;Humidity;BMP_temperature;BMP_pressure;BME280_temperature;BME280_humidity;BME280_pressure;Samples;Min_cycle;Max_cycle;Signal;HPM_P1;HPM_P2
2023/12/08 00:00:07;;;;;;;21.03;11.83;;;;;;;-15.84;98.17;103729.75;5051948;28;20037;-67
2023/12/08 00:02:33;;;;;;;19.48;10.02;;;;;;;-15.84;98.56;103727.19;5052560;28;20036;-66
2023/12/08 00:05:13;;;;;;;16.80;10.77;;;;;;;-15.85;97.19;103731.44;5051141;28;20053;-66
2023/12/08 00:07:41;;;;;;;16.40;10.20;;;;;;;-15.81;97.54;103740.09;5034724;28;20047;-66
2023/12/08 00:10:07;;;;;;;16.83;10.00;;;;;;;-16.02;97.92;103699.94;5052323;28;20044;-66
2023/12/08 00:12:33;;;;;;;15.30;9.97;;;;;;;-15.90;97.22;103729.41;5052270;28;20033;-66
2023/12/08 00:14:58;;;;;;;19.50;9.50;;;;;;;-15.85;97.45;103738.22;5052238;28;20037;-69
2023/12/08 00:17:24;;;;;;;16.27;10.70;;;;;;;-15.94;98.43;103707.09;5052000;28;20124;-66
2023/12/08 00:19:51;;;;;;;16.73;11.07;;;;;;;-15.74;98.55;103742.16;5050832;28;20394;-66
2023/12/08 00:22:17;;;;;;;16.95;11.32;;;;;;;-15.74;98.17;103734.50;5052500;28;20036;-67
2023/12/08 00:24:43;;;;;;;18.33;10.93;;;;;;;-15.88;97.16;103707.41;5051861;28;20037;-68
2023/12/08 00:27:09;;;;;;;18.17;11.53;;;;;;;-15.88;97.73;103727.84;5052041;28;20047;-66
2023/12/08 00:29:34;;;;;;;20.13;12.40;;;;;;;-15.98;98.38;103701.84;5052034;28;20469;-67
2023/12/08 00:32:00;;;;;;;12.87;9.40;;;;;;;-15.76;97.91;103743.75;5051543;28;20036;-68
2023/12/08 00:34:26;;;;;;;15.03;10.20;;;;;;;-15.81;96.86;103730.78;5044721;28;20037;-68
2023/12/08 00:36:51;;;;;;;15.93;11.23;;;;;;;-15.94;97.24;103717.31;5044415;28;20033;-67
2023/12/08 00:39:17;;;;;;;16.10;9.93;;;;;;;-15.83;97.12;103736.59;5032055;28;20037;-66
2023/12/08 00:41:43;;;;;;;17.00;12.53;;;;;;;-15.90;96.85;103758.38;5031749;28;20137;-68
2023/12/08 00:44:08;;;;;;;16.87;10.63;;;;;;;-15.99;97.36;103729.84;5031828;28;20769;-67
2023/12/08 00:46:34;;;;;;;15.00;10.70;;;;;;;-16.00;98.34;103718.75;5031812;28;20037;-68
2023/12/08 00:49:00;;;;;;;16.20;10.23;;;;;;;-15.89;98.53;103726.09;5031985;28;20149;-71
2023/12/08 00:51:26;;;;;;;17.77;11.97;;;;;;;-15.90;96.42;103731.97;5014286;28;20045;-69
2023/12/08 00:53:52;;;;;;;17.67;9.85;;;;;;;-17.03;96.19;103545.19;5030681;28;20033;-65
2023/12/08 00:56:17;;;;;;;13.97;8.83;;;;;;;-15.85;96.95;103739.09;5032002;28;20392;-67
2023/12/08 00:58:43;;;;;;;22.17;10.23;;;;;;;-15.89;96.77;103714.22;5030455;28;20025;-67
2023/12/08 01:01:09;;;;;;;15.13;10.90;;;;;;;-15.95;95.30;103720.66;5032055;28;20103;-67
2023/12/08 01:03:35;;;;;;;15.13;8.95;;;;;;;-16.31;95.81;103664.44;5030753;28;20045;-68
2023/12/08 01:06:01;;;;;;;13.53;9.63;;;;;;;-15.85;97.23;103745.88;5031621;28;20084;-67
2023/12/08 01:08:27;;;;;;;19.47;9.90;;;;;;;-15.82;96.82;103730.69;5031836;28;20045;-67
2023/12/08 01:10:52;;;;;;;15.97;9.97;;;;;;;-15.78;96.79;103735.16;5031016;28;20368;-67
2023/12/08 01:13:19;;;;;;;19.27;10.97;;;;;;;-15.65;96.88;103740.03;5031287;28;20238;-67
2023/12/08 01:15:45;;;;;;;14.45;9.43;;;;;;;-15.70;96.28;103728.72;5031534;28;20115;-65
2023/12/08 01:18:11;;;;;;;18.83;9.98;;;;;;;-15.98;96.31;103690.75;5032406;28;20037;-67
2023/12/08 01:20:36;;;;;;;13.73;9.77;;;;;;;-16.32;96.19;103639.72;5047194;28;20084;-67
2023/12/08 01:23:02;;;;;;;15.90;10.03;;;;;;;-15.81;96.87;103722.22;5031496;28;20041;-66
2023/12/08 01:25:28;;;;;;;14.70;10.13;;;;;;;-15.92;97.24;103702.94;5031222;28;20033;-67
2023/12/08 01:27:55;;;;;;;16.05;10.02;;;;;;;-15.85;96.72;103711.00;5046729;28;20061;-68
2023/12/08 01:30:21;;;;;;;17.35;11.82;;;;;;;-15.92;97.02;103696.16;5052152;28;20036;-66
2023/12/08 01:32:46;;;;;;;19.60;9.90;;;;;;;-15.82;97.02;103717.94;5051367;28;20044;-66
2023/12/08 01:35:12;;;;;;;17.33;10.33;;;;;;;-15.80;97.21;103721.44;5050998;28;20308;-68
2023/12/08 01:37:37;;;;;;;15.33;9.57;;;;;;;-15.79;97.71;103715.53;5050810;28;20033;-67
2023/12/08 01:40:04;;;;;;;14.93;9.23;;;;;;;-15.90;97.52;103697.09;5051104;28;20072;-67
2023/12/08 01:42:29;;;;;;;14.95;9.52;;;;;;;-15.89;98.11;103692.91;5049870;28;20036;-68
2023/12/08 01:44:55;;;;;;;18.77;10.73;;;;;;;-15.81;97.95;103707.78;5051334;28;20037;-67
2023/12/08 01:47:21;;;;;;;19.73;12.87;;;;;;;-16.43;97.88;103617.91;5052158;28;20048;-69
2023/12/08 01:49:47;;;;;;;28.87;16.00;;;;;;;-16.00;98.01;103672.81;5055245;28;20048;-67
2023/12/08 01:52:22;;;;;;;11.50;9.20;;;;;;;-16.00;97.42;103672.81;5055136;28;20086;-65
2023/12/08 01:54:54;;;;;;;20.80;10.60;;;;;;;-15.78;97.51;103715.59;5055449;28;20076;-66
2023/12/08 01:57:20;;;;;;;19.08;10.25;;;;;;;-15.87;97.33;103693.84;5055525;28;20028;-67
2023/12/08 01:59:50;;;;;;;13.00;10.73;;;;;;;-15.76;97.49;103713.13;5055770;28;20041;-68
2023/12/08 02:02:17;;;;;;;20.98;11.50;;;;;;;-15.96;97.73;103699.34;5055371;28;20044;-68
2023/12/08 02:04:48;;;;;;;16.15;10.38;;;;;;;-15.99;98.21;103687.31;5054979;28;20040;-68
2023/12/08 02:07:15;;;;;;;19.92;11.15;;;;;;;-15.85;98.40;103713.56;5054399;28;20183;-68
2023/12/08 02:09:41;;;;;;;19.23;10.52;;;;;;;-16.01;98.43;103688.03;5054602;28;20605;-66
2023/12/08 02:12:09;;;;;;;16.73;9.65;;;;;;;-16.15;98.11;103661.84;5055440;28;20476;-67
2023/12/08 02:14:35;;;;;;;27.08;13.43;;;;;;;-16.27;97.86;103645.91;5054457;28;20151;-66
2023/12/08 02:17:24;;;;;;;19.88;11.13;;;;;;;-15.84;98.35;103710.19;5053582;28;20033;-67
2023/12/08 02:19:51;;;;;;;16.55;10.38;;;;;;;-15.94;98.15;103691.78;5053256;28;20029;-66
2023/12/08 02:22:18;;;;;;;16.13;10.57;;;;;;;-15.96;98.01;103678.94;5056621;28;20032;-66
2023/12/08 02:24:44;;;;;;;17.30;11.82;;;;;;;-15.80;98.28;103695.91;5056156;28;20507;-69
2023/12/08 02:27:11;;;;;;;17.07;8.77;;;;;;;-16.96;97.08;103491.19;5053014;28;20183;-66
2023/12/08 02:29:37;;;;;;;13.82;9.73;;;;;;;-15.60;96.53;103725.84;5054484;28;20059;-66
2023/12/08 02:32:14;;;;;;;15.52;10.73;;;;;;;-15.63;96.27;103692.47;5054774;28;20183;-67
2023/12/08 02:34:42;;;;;;;16.33;10.65;;;;;;;-15.59;95.65;103709.72;5053222;28;20037;-67
2023/12/08 02:37:10;;;;;;;17.55;9.15;;;;;;;-15.55;95.15;103709.03;5054496;28;20434;-66
2023/12/08 02:39:37;;;;;;;18.67;10.27;;;;;;;-15.60;95.24;103713.06;5054559;28;20041;-65
2023/12/08 02:42:03;;;;;;;14.27;10.07;;;;;;;-15.85;95.19;103684.59;5054710;28;20111;-66
2023/12/08 02:44:28;;;;;;;16.30;11.02;;;;;;;-15.71;94.94;103719.31;5054261;28;20068;-66
2023/12/08 02:46:54;;;;;;;15.83;10.40;;;;;;;-15.77;95.61;103711.38;5053963;28;20033;-66
2023/12/08 02:49:20;;;;;;;12.63;8.77;;;;;;;-15.70;96.02;103718.50;5054133;28;20559;-66
2023/12/08 02:51:45;;;;;;;15.17;9.03;;;;;;;-15.58;96.31;103713.16;5054245;28;20519;-66
2023/12/08 02:54:11;;;;;;;18.77;9.83;;;;;;;-15.67;95.46;103703.34;5053096;28;20091;-67
2023/12/08 02:56:36;;;;;;;11.30;9.03;;;;;;;-15.58;95.52;103708.91;5052705;28;20029;-66
2023/12/08 02:59:02;;;;;;;15.27;10.50;;;;;;;-15.84;95.82;103679.56;5053238;28;20041;-66
2023/12/08 03:01:27;;;;;;;15.40;9.77;;;;;;;-15.95;95.98;103670.47;5053460;28;20511;-68
2023/12/08 03:03:53;;;;;;;15.07;8.63;;;;;;;-15.92;96.46;103677.41;5054477;28;20048;-67
2023/12/08 03:06:19;;;;;;;17.17;10.27;;;;;;;-15.91;96.22;103672.38;5054257;28;20067;-68
2023/12/08 03:08:44;;;;;;;23.83;14.10;;;;;;;-15.81;95.06;103694.16;5052578;28;20401;-68
2023/12/08 03:11:10;;;;;;;23.80;14.47;;;;;;;-15.95;95.59;103685.78;5053520;28;20039;-69
2023/12/08 03:13:35;;;;;;;17.10;12.37;;;;;;;-15.90;95.74;103696.22;5053604;28;20045;-66
2023/12/08 03:16:01;;;;;;;23.27;16.40;;;;;;;-16.04;95.69;103686.22;5053240;28;20041;-68
2023/12/08 03:18:27;;;;;;;20.43;13.80;;;;;;;-16.02;95.91;103702.50;5053290;28;20037;-68
2023/12/08 03:20:53;;;;;;;19.47;9.53;;;;;;;-16.04;96.31;103708.31;5052187;28;20037;-66
2023/12/08 03:23:19;;;;;;;16.23;9.40;;;;;;;-16.26;96.78;103673.19;5052435;28;20540;-67
2023/12/08 03:25:44;;;;;;;25.30;12.03;;;;;;;-16.17;97.01;103667.69;5053121;28;20036;-68
2023/12/08 03:28:10;;;;;;;20.00;10.70;;;;;;;-15.92;97.10;103695.28;5053605;28;20116;-66
2023/12/08 03:30:35;;;;;;;14.03;8.93;;;;;;;-15.90;96.96;103698.78;5052877;28;20045;-66
2023/12/08 03:33:01;;;;;;;13.10;9.90;;;;;;;-16.13;96.16;103661.94;5053039;28;20037;-66
2023/12/08 03:35:27;;;;;;;14.57;8.93;;;;;;;-15.83;96.34;103706.84;5053111;28;20028;-68
2023/12/08 03:37:52;;;;;;;13.27;9.27;;;;;;;-15.84;96.15;103701.66;5053200;28;20032;-65
2023/12/08 03:40:18;;;;;;;17.37;9.67;;;;;;;-15.93;95.63;103688.41;5053390;28;20025;-67
2023/12/08 03:42:45;;;;;;;14.30;9.20;;;;;;;-15.81;94.67;103719.69;5053385;28;20106;-67
2023/12/08 03:45:10;;;;;;;17.60;11.00;;;;;;;-16.08;94.88;103669.00;5053838;28;20416;-68
2023/12/08 03:47:36;;;;;;;17.33;11.00;;;;;;;-15.94;93.65;103714.75;5053866;28;20132;-67
2023/12/08 03:50:01;;;;;;;18.23;11.27;;;;;;;-16.32;94.18;103678.84;5053285;28;20515;-67
2023/12/08 03:52:30;;;;;;;17.55;10.98;;;;;;;-16.27;95.21;103707.16;5053133;28;20128;-66
2023/12/08 03:54:55;;;;;;;21.53;13.33;;;;;;;-16.43;95.54;103689.34;5051709;28;20686;-68
2023/12/08 03:57:21;;;;;;;19.07;10.57;;;;;;;-16.44;95.42;103691.00;5053039;28;20037;-67
2023/12/08 03:59:46;;;;;;;18.27;11.03;;;;;;;-16.37;95.51;103726.22;5052426;28;20124;-68
2023/12/08 04:02:12;;;;;;;18.30;11.73;;;;;;;-16.43;96.69;103710.63;5052801;28;20401;-68
2023/12/08 04:04:38;;;;;;;14.70;9.70;;;;;;;-16.34;97.53;103718.72;5052162;28;20430;-67
2023/12/08 04:07:04;;;;;;;15.87;10.33;;;;;;;-16.35;97.21;103713.56;5052450;28;20051;-66
2023/12/08 04:09:30;;;;;;;16.13;11.45;;;;;;;-16.20;98.16;103714.31;5053181;28;20036;-66
2023/12/08 04:11:56;;;;;;;19.90;12.47;;;;;;;-16.39;97.13;103696.34;5053214;28;20035;-68
2023/12/08 04:14:21;;;;;;;24.40;12.30;;;;;;;-16.38;98.28;103677.69;5053135;28;20136;-66
2023/12/08 04:16:49;;;;;;;19.97;11.43;;;;;;;-16.61;97.65;103618.72;5051452;28;20048;-67
2023/12/08 04:19:15;;;;;;;16.80;11.93;;;;;;;-16.21;98.01;103717.66;5051133;28;20127;-66
2023/12/08 04:21:41;;;;;;;21.43;12.87;;;;;;;-16.19;99.45;103716.06;5050949;28;20135;-66
2023/12/08 04:24:06;;;;;;;26.40;14.20;;;;;;;-16.42;100.00;103675.78;5067796;28;20040;-65
2023/12/08 04:26:35;;;;;;;27.30;13.03;;;;;;;-16.12;100.00;103718.16;5051766;28;20036;-67
2023/12/08 04:29:00;;;;;;;28.70;13.43;;;;;;;-16.15;100.00;103695.03;5050697;28;20400;-69
2023/12/08 04:31:26;;;;;;;28.03;16.70;;;;;;;-16.20;100.00;103699.00;5051669;28;20040;-67
2023/12/08 04:33:52;;;;;;;33.17;14.93;;;;;;;-16.18;100.00;103716.97;5050655;28;20035;-69
2023/12/08 04:36:17;;;;;;;33.97;14.90;;;;;;;-16.25;100.00;103676.59;5050771;28;20033;-68
2023/12/08 04:38:43;;;;;;;28.63;15.60;;;;;;;-16.75;100.00;103593.38;5052285;28;20033;-68
2023/12/08 04:41:08;;;;;;;35.47;15.93;;;;;;;-16.04;100.00;103699.00;5051682;28;20035;-68
2023/12/08 04:43:34;;;;;;;27.90;16.17;;;;;;;-16.16;100.00;103669.44;5043447;28;20033;-71
2023/12/08 04:46:00;;;;;;;33.33;14.35;;;;;;;-16.69;100.00;103574.16;5045869;28;20124;-70
2023/12/08 04:48:26;;;;;;;29.07;15.27;;;;;;;-15.91;100.00;103686.81;5052566;28;20500;-68
2023/12/08 04:50:52;;;;;;;25.17;13.17;;;;;;;-16.18;100.00;103635.31;5052380;28;20119;-71
2023/12/08 04:53:17;;;;;;;37.42;14.52;;;;;;;-15.88;100.00;103679.34;5050714;28;20374;-71
2023/12/08 04:55:43;;;;;;;30.37;14.93;;;;;;;-16.09;100.00;103644.28;5052012;28;20076;-70
2023/12/08 04:58:09;;;;;;;32.57;14.00;;;;;;;-15.86;100.00;103690.50;5051620;28;20484;-73
2023/12/08 05:00:35;;;;;;;36.75;17.83;;;;;;;-16.00;100.00;103664.28;5052005;28;20041;-70
2023/12/08 05:03:01;;;;;;;24.92;14.38;;;;;;;-15.75;100.00;103695.31;5052590;28;20522;-66
2023/12/08 05:05:28;;;;;;;32.50;15.93;;;;;;;-15.67;100.00;103690.56;5051691;28;20057;-71
2023/12/08 05:07:54;;;;;;;26.33;13.32;;;;;;;-15.73;100.00;103673.28;5050329;28;20045;-67
2023/12/08 05:10:19;;;;;;;26.47;12.70;;;;;;;-16.05;100.00;103601.91;5051755;28;20058;-67
2023/12/08 05:12:46;;;;;;;27.67;13.30;;;;;;;-15.72;100.00;103638.41;5051356;28;20369;-68
2023/12/08 05:15:12;;;;;;;19.08;11.70;;;;;;;-15.46;100.00;103667.69;5049526;28;20068;-66
2023/12/08 05:17:37;;;;;;;29.77;15.27;;;;;;;-15.65;100.00;103622.53;5051189;28;20118;-67
2023/12/08 05:20:04;;;;;;;19.73;11.43;;;;;;;-15.54;100.00;103636.69;5052122;28;20357;-67
2023/12/08 05:22:30;;;;;;;35.65;12.98;;;;;;;-15.24;100.00;103692.59;5037227;28;20072;-65
2023/12/08 05:24:55;;;;;;;36.27;14.93;;;;;;;-15.27;100.00;103685.66;5055623;28;20075;-67
2023/12/08 05:27:21;;;;;;;28.07;15.20;;;;;;;-15.58;100.00;103654.38;5055162;28;20028;-68
2023/12/08 05:29:47;;;;;;;26.50;14.27;;;;;;;-15.38;100.00;103695.34;5053728;28;20029;-66
2023/12/08 05:32:12;;;;;;;39.07;15.83;;;;;;;-15.57;100.00;103659.53;5055104;28;20462;-67
2023/12/08 05:34:38;;;;;;;48.70;18.93;;;;;;;-15.38;100.00;103685.13;5054928;28;21133;-67
2023/12/08 05:37:04;;;;;;;30.23;16.85;;;;;;;-15.56;100.00;103656.19;5052232;28;20090;-66
2023/12/08 05:39:30;;;;;;;33.57;15.23;;;;;;;-15.30;100.00;103689.75;5055162;28;20025;-68
2023/12/08 05:41:56;;;;;;;23.83;13.30;;;;;;;-15.19;100.00;103688.56;5054893;28;20033;-69
2023/12/08 05:44:21;;;;;;;33.03;14.50;;;;;;;-15.33;100.00;103649.56;5055221;28;20456;-66
2023/12/08 05:46:47;;;;;;;31.83;13.63;;;;;;;-15.07;100.00;103695.09;5054979;28;20545;-68
2023/12/08 05:49:13;;;;;;;25.30;14.63;;;;;;;-15.14;100.00;103681.97;5054461;28;20033;-65
2023/12/08 05:51:38;;;;;;;33.47;16.93;;;;;;;-15.00;100.00;103693.72;5054711;28;20067;-70
2023/12/08 05:54:04;;;;;;;33.57;15.40;;;;;;;-14.97;100.00;103693.84;5055126;28;20041;-66
2023/12/08 05:56:30;;;;;;;26.73;14.00;;;;;;;-14.99;100.00;103703.13;5056425;28;20037;-65
2023/12/08 05:58:55;;;;;;;37.57;17.67;;;;;;;-15.03;100.00;103683.34;5054501;28;20078;-67
2023/12/08 06:01:22;;;;;;;29.37;13.60;;;;;;;-15.00;100.00;103687.72;5053645;28;20029;-66
2023/12/08 06:03:47;;;;;;;30.27;11.93;;;;;;;-14.94;100.00;103695.69;5054284;28;20569;-68
2023/12/08 06:06:15;;;;;;;27.08;14.18;;;;;;;-14.77;100.00;103684.50;5053787;28;20190;-67
2023/12/08 06:08:44;;;;;;;31.98;13.55;;;;;;;-14.77;100.00;103680.25;5054085;28;20052;-66
2023/12/08 06:11:10;;;;;;;42.72;14.10;;;;;;;-14.79;100.00;103681.00;5051576;28;20044;-66
2023/12/08 06:13:36;;;;;;;32.93;13.43;;;;;;;-15.00;100.00;103663.03;5053702;28;20037;-67
2023/12/08 06:16:03;;;;;;;31.20;12.93;;;;;;;-15.19;100.00;103632.31;5053994;28;20270;-69
2023/12/08 06:18:29;;;;;;;27.67;14.48;;;;;;;-14.87;100.00;103678.09;5053807;28;20127;-67
2023/12/08 06:20:55;;;;;;;24.77;12.80;;;;;;;-15.22;100.00;103611.72;5053769;28;20448;-66
2023/12/08 06:23:20;;;;;;;27.47;13.60;;;;;;;-14.92;100.00;103664.25;5052308;28;20028;-67
2023/12/08 06:25:46;;;;;;;25.63;14.33;;;;;;;-14.80;100.00;103676.69;5049409;28;20887;-67
2023/12/08 06:28:12;;;;;;;27.10;15.10;;;;;;;-14.81;100.00;103657.91;5052291;28;20052;-68
2023/12/08 06:30:38;;;;;;;27.98;14.38;;;;;;;-14.95;100.00;103632.56;5053421;28;20506;-70
2023/12/08 06:33:04;;;;;;;21.73;12.37;;;;;;;-14.93;100.00;103621.59;5052955;28;20032;-66
2023/12/08 06:35:29;;;;;;;21.27;12.43;;;;;;;-15.20;100.00;103561.56;5052221;28;20136;-65
2023/12/08 06:37:55;;;;;;;20.53;12.03;;;;;;;-14.75;100.00;103637.72;5054426;28;20029;-69
2023/12/08 06:40:21;;;;;;;27.60;13.47;;;;;;;-14.87;100.00;103605.63;5053874;28;20056;-65
2023/12/08 06:42:46;;;;;;;20.80;12.80;;;;;;;-14.80;100.00;103621.28;5053410;28;20033;-65
2023/12/08 06:45:13;;;;;;;24.67;12.13;;;;;;;-14.68;100.00;103635.44;5054225;28;20381;-66
2023/12/08 06:47:39;;;;;;;26.13;11.52;;;;;;;-14.61;100.00;103629.78;5055697;28;20041;-66
2023/12/08 06:50:05;;;;;;;25.00;13.13;;;;;;;-14.59;100.00;103633.28;5055665;28;20120;-66
2023/12/08 06:52:32;;;;;;;22.77;11.40;;;;;;;-14.60;99.27;103628.97;5053662;28;20041;-67
2023/12/08 06:54:57;;;;;;;21.02;11.95;;;;;;;-14.62;99.88;103635.72;5053274;28;20473;-67
2023/12/08 06:57:23;;;;;;;23.40;12.70;;;;;;;-14.68;99.93;103632.88;5053137;28;20064;-66
2023/12/08 06:59:48;;;;;;;18.13;11.53;;;;;;;-14.65;99.59;103622.78;5052963;28;20129;-66
2023/12/08 07:02:15;;;;;;;26.10;12.20;;;;;;;-14.85;99.42;103610.00;5053227;28;20037;-69
2023/12/08 07:04:40;;;;;;;31.63;14.73;;;;;;;-14.67;99.92;103637.19;5051674;28;20546;-66
2023/12/08 07:07:07;;;;;;;25.27;12.80;;;;;;;-14.80;99.41;103615.31;5052753;28;20053;-68
2023/12/08 07:09:32;;;;;;;28.50;14.68;;;;;;;-14.69;98.80;103638.81;5053095;28;20037;-73
2023/12/08 07:11:58;;;;;;;20.03;12.83;;;;;;;-14.69;99.00;103642.25;5055180;28;20112;-70
2023/12/08 07:14:23;;;;;;;32.63;15.00;;;;;;;-14.74;99.00;103641.19;5054603;28;20037;-67
2023/12/08 07:16:50;;;;;;;24.63;14.37;;;;;;;-14.81;99.71;103623.78;5051995;28;20041;-66
2023/12/08 07:19:15;;;;;;;25.65;12.95;;;;;;;-14.83;99.69;103617.72;5053435;28;20045;-67
2023/12/08 07:21:44;;;;;;;24.80;12.53;;;;;;;-14.68;98.98;103640.56;5052847;28;20033;-66
2023/12/08 07:24:11;;;;;;;25.85;12.75;;;;;;;-14.62;99.04;103628.91;5052826;28;20047;-67
2023/12/08 07:26:37;;;;;;;15.98;10.93;;;;;;;-14.66;97.54;103639.81;5052482;28;20255;-66
2023/12/08 07:29:03;;;;;;;18.23;10.07;;;;;;;-14.72;96.95;103637.88;5053006;28;20506;-65
2023/12/08 07:31:29;;;;;;;20.90;11.57;;;;;;;-14.95;97.54;103591.63;5053349;28;20032;-68
2023/12/08 07:33:55;;;;;;;20.53;11.27;;;;;;;-14.76;96.62;103620.63;5052126;28;20033;-67
2023/12/08 07:36:21;;;;;;;23.23;11.82;;;;;;;-14.93;96.91;103588.34;5054052;28;20033;-65
2023/12/08 07:38:47;;;;;;;19.17;11.37;;;;;;;-14.88;96.71;103601.31;5050741;28;20469;-67
2023/12/08 07:41:12;;;;;;;33.37;13.37;;;;;;;-14.94;95.79;103594.25;5052699;28;20611;-67
2023/12/08 07:43:38;;;;;;;14.67;9.87;;;;;;;-14.90;96.20;103606.38;5052381;28;20043;-65
2023/12/08 07:46:03;;;;;;;20.80;11.30;;;;;;;-14.77;96.08;103618.00;5049805;28;20101;-65
2023/12/08 07:48:29;;;;;;;18.90;12.00;;;;;;;-14.70;95.84;103616.59;5052125;28;20068;-68
2023/12/08 07:50:55;;;;;;;27.13;11.53;;;;;;;-14.69;95.50;103618.34;5052455;28;20315;-68
2023/12/08 07:53:20;;;;;;;18.67;9.60;;;;;;;-15.03;95.22;103573.41;5052018;28;20068;-68
2023/12/08 07:55:46;;;;;;;20.97;13.00;;;;;;;-15.19;95.58;103553.06;5052568;28;20492;-69
2023/12/08 07:58:11;;;;;;;17.03;10.23;;;;;;;-15.03;95.17;103578.53;5051758;28;20045;-70
2023/12/08 08:00:37;;;;;;;16.00;11.10;;;;;;;-15.00;96.42;103560.75;5051979;28;20055;-69
2023/12/08 08:03:04;;;;;;;22.23;12.30;;;;;;;-14.79;96.44;103581.25;5051951;28;20047;-68
2023/12/08 08:05:30;;;;;;;14.93;9.68;;;;;;;-14.76;95.19;103584.81;5051584;28;20730;-66
2023/12/08 08:07:58;;;;;;;22.50;13.50;;;;;;;-14.62;95.16;103594.78;5050411;28;20040;-68
2023/12/08 08:10:24;;;;;;;19.92;10.85;;;;;;;-14.60;94.35;103600.81;5066939;28;20439;-68
2023/12/08 08:12:49;;;;;;;18.77;10.97;;;;;;;-14.62;94.14;103584.53;5051909;28;20025;-68
2023/12/08 08:15:15;;;;;;;24.23;12.03;;;;;;;-14.54;93.23;103596.84;5050816;28;20069;-67
2023/12/08 08:17:41;;;;;;;21.77;13.10;;;;;;;-15.06;93.19;103511.88;5050590;28;20040;-69
2023/12/08 08:20:07;;;;;;;22.07;14.13;;;;;;;-14.56;93.05;103605.25;5051763;28;20037;-69
2023/12/08 08:22:33;;;;;;;27.25;16.20;;;;;;;-14.60;93.41;103585.47;5051589;28;20033;-68
2023/12/08 08:24:59;;;;;;;21.77;11.67;;;;;;;-15.76;93.37;103376.03;5051909;28;20029;-69
2023/12/08 08:27:25;;;;;;;14.02;10.60;;;;;;;-14.68;92.47;103566.38;5050284;28;20042;-68
2023/12/08 08:29:51;;;;;;;18.10;12.30;;;;;;;-14.63;92.81;103577.66;5051705;28;20029;-68
2023/12/08 08:32:17;;;;;;;14.40;10.75;;;;;;;-14.62;92.37;103597.31;5051323;28;20037;-67
2023/12/08 08:34:43;;;;;;;22.15;12.13;;;;;;;-14.79;93.03;103569.31;5048764;28;20492;-65
2023/12/08 08:37:09;;;;;;;17.67;10.85;;;;;;;-14.78;93.63;103565.97;5048532;28;20042;-67
2023/12/08 08:39:35;;;;;;;16.93;10.20;;;;;;;-14.56;94.35;103577.13;5048571;28;20040;-67
2023/12/08 08:42:00;;;;;;;18.97;10.83;;;;;;;-14.56;93.98;103547.28;5049550;28;20060;-66
2023/12/08 08:44:29;;;;;;;19.33;11.27;;;;;;;-14.48;93.93;103557.81;5049809;28;20040;-68
2023/12/08 08:47:06;;;;;;;15.98;10.30;;;;;;;-14.89;94.27;103480.25;5050143;28;20381;-68
2023/12/08 08:49:50;;;;;;;12.50;10.50;;;;;;;-14.40;93.63;103556.44;5049153;28;20428;-67
2023/12/08 08:53:05;;;;;;;22.10;12.00;;;;;;;-14.33;93.75;103571.22;5050547;28;20461;-65
2023/12/08 08:55:31;;;;;;;16.35;12.23;;;;;;;-14.49;92.69;103553.53;5050094;28;20040;-65
2023/12/08 08:57:57;;;;;;;17.70;10.93;;;;;;;-14.53;93.15;103538.84;5051638;28;20052;-66
2023/12/08 09:00:25;;;;;;;21.03;11.03;;;;;;;-14.43;93.54;103538.44;5051507;28;20040;-68
2023/12/08 09:02:52;;;;;;;19.25;11.50;;;;;;;-14.41;92.94;103562.38;5051361;28;20267;-65
2023/12/08 09:05:19;;;;;;;22.58;14.48;;;;;;;-14.35;92.81;103565.19;5051341;28;20072;-64
2023/12/08 09:07:47;;;;;;;23.27;12.65;;;;;;;-14.40;93.03;103565.00;5050035;28;20079;-67
2023/12/08 09:10:13;;;;;;;19.03;11.37;;;;;;;-14.55;93.91;103527.69;5051200;28;20045;-67
2023/12/08 09:12:38;;;;;;;16.27;10.20;;;;;;;-14.36;93.06;103549.75;5051479;28;20041;-68
2023/12/08 09:15:04;;;;;;;21.03;12.60;;;;;;;-14.10;93.83;103567.06;5051704;28;20036;-68
2023/12/08 09:17:32;;;;;;;31.30;14.38;;;;;;;-14.13;93.52;103531.09;5051132;28;20115;-69
2023/12/08 09:19:57;;;;;;;27.00;12.73;;;;;;;-14.06;92.97;103529.63;5051094;28;20124;-67
2023/12/08 09:22:23;;;;;;;24.80;11.03;;;;;;;-13.85;93.23;103564.66;5051529;28;20041;-68
2023/12/08 09:24:48;;;;;;;22.35;13.05;;;;;;;-13.70;93.46;103560.91;5051061;28;20029;-67
2023/12/08 09:27:14;;;;;;;24.47;12.20;;;;;;;-13.78;92.61;103530.75;5051479;28;20041;-67
2023/12/08 09:29:40;;;;;;;25.97;14.73;;;;;;;-13.79;91.45;103543.50;5052082;28;20464;-70
2023/12/08 09:32:06;;;;;;;19.13;11.87;;;;;;;-13.82;91.93;103536.59;5056522;28;20040;-71
2023/12/08 09:34:31;;;;;;;24.95;12.73;;;;;;;-13.94;90.93;103533.53;5053545;28;20119;-68
2023/12/08 09:36:57;;;;;;;19.27;10.93;;;;;;;-14.03;92.46;103517.81;5052960;28;20045;-71
2023/12/08 09:39:23;;;;;;;17.58;11.27;;;;;;;-13.91;92.59;103550.69;5054378;28;20036;-68
2023/12/08 09:41:54;;;;;;;16.57;11.00;;;;;;;-13.98;93.06;103518.00;5057506;28;20037;-70
2023/12/08 09:44:20;;;;;;;18.35;11.52;;;;;;;-14.27;92.84;103453.72;5054688;28;20098;-69
2023/12/08 09:46:54;;;;;;;24.77;12.03;;;;;;;-14.17;93.37;103460.94;5051814;28;20029;-68
2023/12/08 09:49:29;;;;;;;22.23;12.77;;;;;;;-13.82;92.96;103520.34;5050987;28;20439;-66
2023/12/08 09:51:56;;;;;;;15.27;9.82;;;;;;;-13.74;93.09;103543.69;5054033;28;20025;-69
2023/12/08 09:54:26;;;;;;;16.35;10.90;;;;;;;-14.06;93.06;103478.41;5055338;28;20044;-72
2023/12/08 09:56:52;;;;;;;18.67;13.43;;;;;;;-13.70;93.41;103525.91;5052544;28;20036;-69
2023/12/08 09:59:26;;;;;;;18.17;10.05;;;;;;;-13.60;92.88;103524.56;5050930;28;20037;-67
2023/12/08 10:01:54;;;;;;;15.60;11.98;;;;;;;-13.68;92.29;103508.91;5043448;28;20043;-70
2023/12/08 10:04:21;;;;;;;17.15;12.05;;;;;;;-13.50;92.17;103535.22;5048991;28;20063;-66
2023/12/08 10:06:48;;;;;;;27.40;12.35;;;;;;;-13.42;91.86;103539.75;5050591;28;20060;-69
2023/12/08 10:09:19;;;;;;;22.70;12.25;;;;;;;-13.56;91.59;103537.56;5053091;28;20370;-71
2023/12/08 10:11:44;;;;;;;25.42;11.95;;;;;;;-13.75;91.96;103504.38;5053114;28;20033;-68
2023/12/08 10:14:12;;;;;;;25.00;14.43;;;;;;;-13.78;92.78;103522.19;5053371;28;20476;-69
2023/12/08 10:16:38;;;;;;;20.90;12.18;;;;;;;-13.88;93.42;103499.59;5054911;28;20037;-68
2023/12/08 10:19:05;;;;;;;16.07;12.03;;;;;;;-13.73;93.96;103530.06;5053781;28;20111;-65
2023/12/08 10:21:31;;;;;;;18.38;11.93;;;;;;;-13.70;93.94;103531.03;5054134;28;20040;-68
2023/12/08 10:24:01;;;;;;;16.48;11.98;;;;;;;-13.87;94.07;103492.00;5054329;28;20037;-66
2023/12/08 10:26:29;;;;;;;26.50;12.48;;;;;;;-13.65;93.83;103516.72;5051308;28;20049;-69
2023/12/08 10:28:59;;;;;;;26.80;12.13;;;;;;;-13.53;94.71;103516.31;5053743;28;20396;-67
2023/12/08 10:31:27;;;;;;;20.10;11.43;;;;;;;-13.57;93.94;103505.06;5053537;28;20492;-67
2023/12/08 10:33:54;;;;;;;25.50;13.27;;;;;;;-13.78;93.97;103479.53;5052655;28;20029;-65
2023/12/08 10:36:19;;;;;;;16.63;10.05;;;;;;;-14.05;94.27;103419.56;5054006;28;20047;-68
2023/12/08 10:38:49;;;;;;;24.50;11.93;;;;;;;-13.54;94.82;103487.25;5052537;28;20395;-73
2023/12/08 10:41:14;;;;;;;16.92;10.57;;;;;;;-13.40;94.32;103489.41;5054880;28;20046;-67
2023/12/08 10:43:40;;;;;;;18.23;12.03;;;;;;;-13.32;93.53;103488.00;5056008;28;20041;-66
2023/12/08 10:46:08;;;;;;;19.25;11.52;;;;;;;-14.17;93.48;103365.31;5053428;28;20079;-69
2023/12/08 10:48:34;;;;;;;15.68;10.48;;;;;;;-13.54;94.02;103487.25;5052988;28;20115;-68
2023/12/08 10:51:00;;;;;;;17.20;11.27;;;;;;;-13.81;94.68;103453.78;5053932;28;20036;-68
2023/12/08 10:53:27;;;;;;;18.33;10.95;;;;;;;-13.95;94.67;103431.91;5050320;28;20035;-68
2023/12/08 10:56:04;;;;;;;18.35;12.23;;;;;;;-14.21;95.25;103386.50;5053277;28;20136;-71
2023/12/08 10:58:33;;;;;;;19.02;12.55;;;;;;;-13.97;95.25;103404.50;5053758;28;20087;-70